Time;durP1;ratioP1;P1;durP2;ratioP2;P2;SDS_P1;SDS_P2;PMS_P1;PMS_P2;Temp;Humidity;BMP_temperature;BMP_pressure;BME280_temperature;BME280_humidity;BME280_pressure;Samples;Min_cycle;Max_cycle;Signal;HPM_P1;HPM_P2
2021/06/20 00:01:20;;;;;;;31.70;20.15;;;;;;;13.93;78.52;100888.41;4156683;28;20036;-85
2021/06/20 00:03:20;;;;;;;32.53;21.55;;;;;;;14.02;78.17;100897.94;4160379;28;20470;-90
2021/06/20 00:05:29;;;;;;;26.75;20.13;;;;;;;13.79;79.29;100877.63;4180916;28;20032;-84
2021/06/20 00:07:29;;;;;;;27.60;21.70;;;;;;;13.92;79.18;100868.31;4176088;28;20515;-87
2021/06/20 00:09:30;;;;;;;32.75;19.05;;;;;;;13.82;79.10;100855.13;4160042;28;20037;-88
2021/06/20 00:11:31;;;;;;;33.92;15.70;;;;;;;13.71;79.62;100884.34;4131781;28;20066;-85
2021/06/20 00:13:32;;;;;;;31.30;18.13;;;;;;;13.86;78.82;100894.84;4158312;28;20041;-86
2021/06/20 00:15:34;;;;;;;32.58;17.95;;;;;;;13.87;78.67;100877.25;4160759;28;20022;-86
2021/06/20 00:17:34;;;;;;;33.97;17.58;;;;;;;13.77;79.43;100887.22;4162941;28;20029;-88
2021/06/20 00:19:34;;;;;;;22.45;15.75;;;;;;;13.81;79.30;100892.00;4159506;28;20067;-86
2021/06/20 00:21:36;;;;;;;19.73;16.00;;;;;;;13.81;79.28;100894.75;4143404;28;20579;-88
2021/06/20 00:23:36;;;;;;;19.20;13.73;;;;;;;13.95;78.45;100902.72;4144643;28;20053;-87
2021/06/20 00:25:37;;;;;;;18.00;15.43;;;;;;;13.98;78.18;100913.25;4144635;28;20499;-86
2021/06/20 00:27:37;;;;;;;18.50;14.50;;;;;;;14.00;77.95;100891.84;4162322;28;20633;-87
2021/06/20 00:29:38;;;;;;;20.08;14.40;;;;;;;13.97;77.83;100900.59;4160665;28;20080;-87
2021/06/20 00:31:38;;;;;;;16.35;14.65;;;;;;;14.06;77.66;100907.38;4147184;28;20074;-87
2021/06/20 00:33:40;;;;;;;17.63;13.55;;;;;;;14.14;77.73;100920.75;4126365;28;20089;-88
2021/06/20 00:35:40;;;;;;;15.57;11.90;;;;;;;14.03;77.32;100900.44;4144420;28;20040;-85
2021/06/20 00:37:41;;;;;;;15.55;11.45;;;;;;;14.06;77.57;100899.13;4159443;28;20626;-86
2021/06/20 00:39:42;;;;;;;13.95;12.38;;;;;;;14.09;77.41;100901.38;4167036;28;20029;-87
2021/06/20 00:41:42;;;;;;;15.60;12.43;;;;;;;14.09;77.47;100890.38;4128802;28;20621;-86
2021/06/20 00:43:43;;;;;;;15.20;12.18;;;;;;;13.95;77.83;100869.72;4168958;28;20044;-83
2021/06/20 00:45:43;;;;;;;15.98;13.93;;;;;;;13.99;77.74;100851.63;4179266;28;20032;-84
2021/06/20 00:47:44;;;;;;;17.10;12.85;;;;;;;13.83;78.10;100847.72;4177495;28;20110;-85
2021/06/20 00:49:46;;;;;;;12.55;11.25;;;;;;;13.61;78.19;100829.16;4161484;28;20033;-85
2021/06/20 00:51:46;;;;;;;12.40;10.98;;;;;;;13.48;78.85;100823.91;4178508;28;20033;-86
2021/06/20 00:53:47;;;;;;;12.98;10.60;;;;;;;13.57;79.04;100830.69;4143079;28;20030;-84
2021/06/20 00:55:50;;;;;;;14.38;11.27;;;;;;;13.62;78.52;100818.97;4147716;28;20555;-88
2021/06/20 00:57:51;;;;;;;15.40;11.95;;;;;;;13.61;78.37;100826.41;4145812;28;20034;-88
2021/06/20 00:59:51;;;;;;;11.88;10.10;;;;;;;13.52;78.84;100828.69;4136961;28;20063;-85
2021/06/20 01:01:52;;;;;;;15.90;10.43;;;;;;;13.50;78.86;100825.34;4146393;28;20125;-87
2021/06/20 01:03:52;;;;;;;16.13;10.43;;;;;;;13.53;78.99;100830.38;4161036;28;20034;-88
2021/06/20 01:05:53;;;;;;;12.85;9.73;;;;;;;13.33;79.47;100816.16;4148671;28;20029;-86
2021/06/20 01:07:55;;;;;;;14.35;9.73;;;;;;;13.50;78.95;100814.34;4132100;28;20034;-87
2021/06/20 01:09:55;;;;;;;13.90;9.80;;;;;;;13.32;79.21;100828.25;4174775;28;20052;-84
2021/06/20 01:11:56;;;;;;;8.90;8.02;;;;;;;13.50;79.24;100836.34;4145479;28;20029;-85
2021/06/20 01:13:56;;;;;;;13.30;9.50;;;;;;;13.42;79.59;100835.88;4140511;28;20125;-86
2021/06/20 01:15:57;;;;;;;9.35;8.45;;;;;;;13.48;78.90;100821.16;4144486;28;20113;-85
2021/06/20 01:17:57;;;;;;;8.77;7.72;;;;;;;13.51;78.90;100821.50;4170778;28;20040;-86
2021/06/20 01:19:58;;;;;;;10.13;8.95;;;;;;;13.62;79.04;100817.03;4143118;28;20029;-85
2021/06/20 01:22:20;;;;;;;9.73;8.73;;;;;;;13.54;79.13;100821.00;4151337;28;20447;-85
2021/06/20 01:24:20;;;;;;;8.63;7.80;;;;;;;13.52;79.28;100805.84;4178659;28;20048;-85
2021/06/20 01:26:21;;;;;;;7.75;6.95;;;;;;;13.62;79.23;100800.53;4164499;28;20029;-85
2021/06/20 01:28:27;;;;;;;7.72;7.03;;;;;;;13.52;79.42;100801.19;4159117;28;20034;-84
2021/06/20 01:30:34;;;;;;;9.95;7.85;;;;;;;13.52;79.63;100795.69;4157450;28;20038;-84
2021/06/20 01:32:35;;;;;;;7.60;6.90;;;;;;;13.40;79.93;100797.63;4183075;28;20039;-84
2021/06/20 01:34:38;;;;;;;6.28;5.72;;;;;;;13.48;79.98;100790.91;4160070;28;20045;-85
2021/06/20 01:36:39;;;;;;;7.65;6.85;;;;;;;13.43;79.86;100786.16;4130419;28;20065;-84
2021/06/20 01:38:40;;;;;;;7.22;6.72;;;;;;;13.61;79.71;100776.91;4163342;28;20030;-85
2021/06/20 01:40:40;;;;;;;8.95;6.10;;;;;;;13.46;79.79;100777.41;4160140;28;20032;-84
2021/06/20 01:42:42;;;;;;;5.47;5.07;;;;;;;13.49;79.75;100757.69;4179200;28;20033;-84
2021/06/20 01:44:53;;;;;;;6.20;5.68;;;;;;;13.59;79.58;100762.53;4140229;28;20038;-88
2021/06/20 01:46:53;;;;;;;8.75;5.13;;;;;;;13.53;79.97;100753.38;4158334;28;20475;-85
2021/06/20 01:48:54;;;;;;;5.95;5.00;;;;;;;13.68;79.29;100763.81;4167826;28;20095;-85
2021/06/20 01:50:54;;;;;;;5.75;5.28;;;;;;;13.85;79.18;100766.59;4127411;28;20030;-86
2021/06/20 01:53:12;;;;;;;5.53;5.07;;;;;;;13.89;79.02;100764.25;4166354;28;20036;-85
2021/06/20 01:55:15;;;;;;;9.25;4.05;;;;;;;13.78;79.10;100771.44;4155986;28;20120;-90
2021/06/20 01:57:33;;;;;;;4.72;4.18;;;;;;;13.86;78.94;100773.78;4161204;28;20116;-84
2021/06/20 01:59:33;;;;;;;6.25;3.85;;;;;;;13.86;78.99;100776.53;4160885;28;20037;-85
2021/06/20 02:01:33;;;;;;;5.13;3.65;;;;;;;13.72;78.84;100748.50;4159918;28;20086;-86
2021/06/20 02:03:34;;;;;;;5.95;3.65;;;;;;;13.84;78.89;100755.84;4160550;28;20683;-87
2021/06/20 02:05:35;;;;;;;6.00;3.13;;;;;;;13.85;78.62;100763.03;4158999;28;20033;-87
2021/06/20 02:07:37;;;;;;;5.47;3.70;;;;;;;14.01;78.35;100772.41;4159770;28;20045;-86
2021/06/20 02:09:38;;;;;;;3.05;2.70;;;;;;;14.03;78.36;100773.03;4181707;28;20032;-85
2021/06/20 02:11:39;;;;;;;7.85;3.83;;;;;;;14.05;78.31;100784.59;4159987;28;20035;-86
2021/06/20 02:13:39;;;;;;;3.60;2.35;;;;;;;14.00;78.21;100779.84;4159540;28;20030;-87
2021/06/20 02:15:43;;;;;;;2.95;2.58;;;;;;;13.99;78.02;100794.69;4159750;28;20137;-87
2021/06/20 02:17:44;;;;;;;4.10;2.47;;;;;;;13.95;78.38;100803.66;4145820;28;20053;-88
2021/06/20 02:19:45;;;;;;;1.95;1.85;;;;;;;13.94;77.98;100824.84;4178924;28;20316;-89
2021/06/20 02:21:45;;;;;;;3.35;2.67;;;;;;;13.87;78.11;100822.22;4129088;28;20042;-88
2021/06/20 02:23:46;;;;;;;5.43;2.40;;;;;;;13.86;78.04;100816.97;4138782;28;20026;-85
2021/06/20 02:25:47;;;;;;;2.45;2.25;;;;;;;13.81;78.36;100803.97;4164017;28;20041;-87
2021/06/20 02:27:50;;;;;;;2.30;2.08;;;;;;;13.66;78.25;100779.72;4179338;28;20033;-87
2021/06/20 02:29:53;;;;;;;2.47;1.40;;;;;;;13.63;78.28;100771.97;4144463;28;20797;-85
2021/06/20 02:31:53;;;;;;;3.40;2.17;;;;;;;13.58;78.44;100777.38;4179420;28;20510;-87
2021/06/20 02:33:54;;;;;;;2.97;2.22;;;;;;;13.52;78.46;100756.34;4144802;28;20054;-87
2021/06/20 02:35:54;;;;;;;1.73;1.60;;;;;;;13.52;78.79;100759.94;4178423;28;20181;-86
2021/06/20 02:37:55;;;;;;;1.80;1.70;;;;;;;13.52;78.78;100735.19;4142471;28;20131;-86
2021/06/20 02:39:55;;;;;;;3.50;2.03;;;;;;;13.45;79.15;100704.25;4179315;28;20064;-86
2021/06/20 02:41:56;;;;;;;2.63;2.22;;;;;;;13.22;79.64;100685.09;4143861;28;20452;-85
2021/06/20 02:43:56;;;;;;;2.45;2.35;;;;;;;13.20;79.82;100671.59;4178971;28;20087;-84
2021/06/20 02:45:57;;;;;;;2.50;2.13;;;;;;;13.24;79.73;100678.28;4144218;28;20018;-85
2021/06/20 02:47:57;;;;;;;4.50;2.05;;;;;;;13.08;80.11;100665.31;4150305;28;20029;-85
2021/06/20 02:49:58;;;;;;;2.15;1.98;;;;;;;13.16;80.23;100662.16;4159043;28;20404;-85
2021/06/20 02:51:59;;;;;;;2.53;2.33;;;;;;;13.07;80.26;100649.91;4182191;28;20029;-87
2021/06/20 02:53:59;;;;;;;2.88;2.78;;;;;;;13.04;79.81;100645.75;4169115;28;20510;-87
2021/06/20 02:56:00;;;;;;;1.88;1.77;;;;;;;13.15;79.54;100653.09;4146300;28;20033;-84
2021/06/20 02:58:00;;;;;;;2.53;2.33;;;;;;;13.11;79.87;100667.56;4135549;28;20041;-86
2021/06/20 03:00:02;;;;;;;1.50;1.40;;;;;;;13.09;79.62;100681.56;4177803;28;20495;-86
2021/06/20 03:02:03;;;;;;;2.58;2.38;;;;;;;13.06;79.75;100694.97;4143886;28;20041;-89
2021/06/20 03:04:03;;;;;;;2.78;2.58;;;;;;;13.04;79.59;100703.44;4137589;28;20040;-84
2021/06/20 03:06:05;;;;;;;1.83;1.73;;;;;;;13.30;78.81;100728.69;4140834;28;20030;-87
2021/06/20 03:08:06;;;;;;;2.10;2.00;;;;;;;13.37;78.62;100729.38;4130824;28;20052;-87
2021/06/20 03:10:07;;;;;;;1.90;1.73;;;;;;;13.27;78.51;100726.44;4145089;28;20042;-88
2021/06/20 03:12:09;;;;;;;2.75;2.55;;;;;;;13.17;78.89;100716.88;4147392;28;20038;-88
2021/06/20 03:14:14;;;;;;;2.05;1.95;;;;;;;13.27;78.93;100719.03;4182221;28;20108;-88
2021/06/20 03:16:15;;;;;;;2.50;2.30;;;;;;;12.99;79.21;100693.19;4157449;28;20766;-85
2021/06/20 03:18:16;;;;;;;1.48;1.38;;;;;;;13.16;78.71;100663.03;4159228;28;20137;-86
2021/06/20 03:20:16;;;;;;;1.77;1.50;;;;;;;13.01;79.42;100640.75;4145392;28;20484;-88
2021/06/20 03:22:17;;;;;;;2.38;2.17;;;;;;;13.04;79.45;100654.00;4143747;28;20038;-87
2021/06/20 03:24:18;;;;;;;1.45;1.40;;;;;;;12.82;79.91;100665.59;4141767;28;20743;-85
2021/06/20 03:26:19;;;;;;;2.47;2.20;;;;;;;12.97;78.92;100656.03;4130815;28;20085;-86
2021/06/20 03:28:19;;;;;;;1.40;1.30;;;;;;;12.70;79.92;100641.97;4144414;28;20033;-87
2021/06/20 03:30:20;;;;;;;1.38;1.13;;;;;;;12.75;79.79;100667.66;4141775;28;20042;-86
2021/06/20 03:32:23;;;;;;;1.35;1.30;;;;;;;12.84;79.55;100679.09;4158969;28;20077;-86
2021/06/20 03:34:23;;;;;;;2.65;1.90;;;;;;;12.89;78.95;100654.50;4169167;28;20088;-85
2021/06/20 03:36:25;;;;;;;2.17;2.08;;;;;;;12.77;79.36;100660.00;4155696;28;20459;-86
2021/06/20 03:38:25;;;;;;;2.58;2.38;;;;;;;12.97;78.90;100683.50;4157180;28;20062;-86
2021/06/20 03:40:26;;;;;;;1.70;1.60;;;;;;;13.09;78.51;100686.22;4159541;28;20057;-88
2021/06/20 03:42:26;;;;;;;1.92;1.83;;;;;;;12.89;78.64;100676.47;4149813;28;20122;-85
2021/06/20 03:44:27;;;;;;;2.58;2.38;;;;;;;12.92;78.58;100670.50;4142562;28;20034;-89
2021/06/20 03:46:27;;;;;;;3.15;2.63;;;;;;;12.87;78.64;100661.31;4143459;28;20108;-88
2021/06/20 03:48:28;;;;;;;1.85;1.48;;;;;;;12.88;78.10;100641.00;4159251;28;20034;-87
2021/06/20 03:50:28;;;;;;;3.50;3.20;;;;;;;12.92;78.44;100637.53;4143988;28;20056;-85
2021/06/20 03:52:29;;;;;;;2.17;2.00;;;;;;;12.75;78.41;100631.94;4154086;28;20145;-86
2021/06/20 03:54:31;;;;;;;3.80;2.40;;;;;;;12.70;78.71;100642.81;4160896;28;20547;-86
2021/06/20 03:56:31;;;;;;;3.58;3.35;;;;;;;12.77;78.47;100649.00;4146832;28;20041;-86
2021/06/20 03:58:32;;;;;;;2.70;2.50;;;;;;;12.74;78.63;100638.50;4158889;28;20076;-87
2021/06/20 04:00:34;;;;;;;2.50;2.30;;;;;;;12.87;78.06;100650.31;4164742;28;20060;-88
2021/06/20 04:02:35;;;;;;;2.10;2.00;;;;;;;12.97;77.87;100673.34;4178285;28;20529;-87
2021/06/20 04:04:38;;;;;;;2.28;2.17;;;;;;;12.98;77.57;100672.28;4163740;28;20064;-87
2021/06/20 04:06:38;;;;;;;2.92;2.72;;;;;;;13.02;77.42;100688.28;4160098;28;20083;-87
2021/06/20 04:08:39;;;;;;;2.63;2.20;;;;;;;13.12;77.13;100689.31;4147286;28;20604;-87
2021/06/20 04:10:39;;;;;;;2.28;1.70;;;;;;;13.19;76.98;100697.41;4180119;28;20029;-86
2021/06/20 04:12:40;;;;;;;1.95;1.85;;;;;;;13.25;76.88;100684.63;4145547;28;20111;-87
2021/06/20 04:14:41;;;;;;;1.73;1.60;;;;;;;13.23;76.84;100667.53;4177510;28;20037;-89
2021/06/20 04:16:42;;;;;;;2.10;1.98;;;;;;;13.20;76.90;100677.09;4154629;28;20038;-86
2021/06/20 04:18:43;;;;;;;3.28;3.08;;;;;;;13.37;77.20;100682.66;4162056;28;20087;-91
2021/06/20 04:20:43;;;;;;;2.60;2.50;;;;;;;13.41;76.92;100681.09;4162418;28;20033;-87
2021/06/20 04:22:44;;;;;;;3.25;3.05;;;;;;;13.52;76.42;100702.19;4162786;28;20056;-87
2021/06/20 04:24:44;;;;;;;2.40;2.20;;;;;;;13.63;75.79;100702.38;4163863;28;20025;-86
2021/06/20 04:26:45;;;;;;;2.35;2.15;;;;;;;13.78;75.93;100716.41;4163386;28;20491;-87
2021/06/20 04:28:45;;;;;;;3.28;1.90;;;;;;;13.84;75.79;100709.94;4144439;28;20034;-86
2021/06/20 04:30:47;;;;;;;2.72;2.45;;;;;;;13.87;75.28;100706.69;4179105;28;20060;-86
2021/06/20 04:32:51;;;;;;;2.55;2.28;;;;;;;13.88;75.17;100700.09;4185952;28;20247;-87
2021/06/20 04:34:52;;;;;;;2.22;2.03;;;;;;;14.00;75.19;100707.47;4159818;28;20652;-87
2021/06/20 04:36:52;;;;;;;3.10;2.78;;;;;;;14.00;75.02;100696.47;4126248;28;20033;-86
2021/06/20 04:38:53;;;;;;;2.75;2.17;;;;;;;14.05;74.62;100694.59;4162045;28;20068;-86
2021/06/20 04:41:01;;;;;;;1.83;1.60;;;;;;;14.12;74.59;100686.22;4177669;28;20040;-89
2021/06/20 04:43:07;;;;;;;2.42;1.60;;;;;;;14.20;74.20;100690.47;4160575;28;20084;-88
2021/06/20 04:45:10;;;;;;;2.40;1.88;;;;;;;14.25;74.04;100713.38;4178739;28;20029;-88
2021/06/20 04:47:12;;;;;;;2.00;1.90;;;;;;;14.22;73.81;100705.63;4147748;28;20124;-86
2021/06/20 04:49:14;;;;;;;2.80;2.08;;;;;;;14.30;74.38;100704.38;4180598;28;20080;-86
2021/06/20 04:51:14;;;;;;;3.15;2.60;;;;;;;14.32;74.01;100710.47;4129715;28;20034;-86
2021/06/20 04:53:15;;;;;;;1.70;1.60;;;;;;;14.47;74.41;100703.53;4166160;28;20041;-85
2021/06/20 04:55:16;;;;;;;2.50;2.40;;;;;;;14.41;74.19;100708.09;4143382;28;20040;-85
2021/06/20 04:57:22;;;;;;;2.60;2.45;;;;;;;14.95;72.68;100700.09;4179578;28;20033;-86
2021/06/20 04:59:22;;;;;;;3.10;2.90;;;;;;;16.05;70.48;100712.06;4159939;28;20029;-86
2021/06/20 05:01:22;;;;;;;3.38;2.92;;;;;;;17.97;65.78;100721.81;4163929;28;20604;-88
2021/06/20 05:03:23;;;;;;;2.22;2.03;;;;;;;19.93;60.44;100732.38;4175974;28;20035;-85
2021/06/20 05:05:23;;;;;;;3.70;2.10;;;;;;;19.27;59.85;100720.50;4159249;28;20037;-85
2021/06/20 05:07:24;;;;;;;1.67;1.38;;;;;;;18.28;62.61;100715.47;4175584;28;20025;-87
2021/06/20 05:09:24;;;;;;;3.88;1.92;;;;;;;17.67;63.21;100717.06;4182506;28;20028;-87
2021/06/20 05:11:25;;;;;;;3.22;2.05;;;;;;;17.06;63.78;100710.22;4181917;28;20044;-87
2021/06/20 05:13:33;;;;;;;2.13;1.52;;;;;;;16.88;66.07;100691.34;4180937;28;20040;-87
2021/06/20 05:15:33;;;;;;;1.63;1.25;;;;;;;17.16;65.90;100701.13;4162407;28;20056;-89
2021/06/20 05:17:34;;;;;;;2.97;2.47;;;;;;;16.81;64.48;100674.19;4145044;28;20069;-88
2021/06/20 05:19:34;;;;;;;2.88;2.10;;;;;;;16.44;65.25;100667.59;4162764;28;20285;-85
2021/06/20 05:21:35;;;;;;;2.03;1.60;;;;;;;16.28;66.69;100694.28;4156808;28;20072;-87
2021/06/20 05:23:35;;;;;;;2.08;1.75;;;;;;;16.13;67.68;100707.97;4161570;28;20064;-85
2021/06/20 05:25:36;;;;;;;1.90;1.80;;;;;;;16.11;68.20;100726.72;4155447;28;20037;-86
2021/06/20 05:27:36;;;;;;;4.80;2.17;;;;;;;16.01;68.72;100728.28;4160139;28;20574;-86
2021/06/20 05:29:37;;;;;;;3.65;2.05;;;;;;;16.76;69.26;100721.97;4177260;28;20040;-87
2021/06/20 05:31:38;;;;;;;2.10;1.67;;;;;;;18.87;64.41;100719.53;4180215;28;20055;-87
2021/06/20 05:33:39;;;;;;;3.15;2.17;;;;;;;20.44;58.06;100717.22;4179053;28;20057;-86
2021/06/20 05:35:40;;;;;;;4.03;1.85;;;;;;;19.81;58.91;100732.69;4161498;28;20061;-86
2021/06/20 05:37:40;;;;;;;2.08;1.90;;;;;;;20.70;59.10;100733.66;4146959;28;20113;-86
2021/06/20 05:39:41;;;;;;;2.28;1.40;;;;;;;21.74;55.93;100740.44;4177556;28;20123;-88
2021/06/20 05:41:41;;;;;;;2.00;1.80;;;;;;;20.99;56.40;100737.22;4152830;28;20657;-88
2021/06/20 05:43:42;;;;;;;2.75;1.58;;;;;;;20.03;58.21;100723.94;4159520;28;20031;-87
2021/06/20 05:45:42;;;;;;;2.10;1.60;;;;;;;19.78;58.96;100736.88;4146122;28;20045;-89
2021/06/20 05:47:43;;;;;;;2.05;1.92;;;;;;;19.40;60.38;100750.44;4148373;28;20033;-88
2021/06/20 05:49:43;;;;;;;3.88;1.65;;;;;;;19.07;60.95;100747.19;4142899;28;20041;-92
2021/06/20 05:51:44;;;;;;;3.00;1.52;;;;;;;19.20;61.03;100729.16;4138661;28;20642;-87
2021/06/20 05:53:45;;;;;;;3.30;1.50;;;;;;;18.87;61.02;100731.44;4140992;28;20034;-88
2021/06/20 05:55:46;;;;;;;1.42;1.20;;;;;;;18.78;61.80;100724.81;4161186;28;20029;-87
2021/06/20 05:57:46;;;;;;;1.40;1.33;;;;;;;18.58;62.22;100727.63;4148787;28;20472;-88
2021/06/20 05:59:47;;;;;;;1.92;1.30;;;;;;;18.15;62.66;100709.38;4160314;28;20029;-86
2021/06/20 06:01:48;;;;;;;3.10;1.80;;;;;;;18.08;63.10;100725.44;4181432;28;20094;-88
2021/06/20 06:03:48;;;;;;;1.73;1.35;;;;;;;17.98;62.52;100706.03;4143029;28;20117;-90
2021/06/20 06:05:49;;;;;;;1.35;1.25;;;;;;;18.14;60.42;100695.81;4145276;28;20030;-90
2021/06/20 06:07:49;;;;;;;2.55;1.33;;;;;;;19.65;59.23;100706.13;4160498;28;20061;-89
2021/06/20 06:09:50;;;;;;;2.10;1.50;;;;;;;20.63;57.26;100695.06;4174617;28;20028;-87
2021/06/20 06:11:50;;;;;;;1.70;1.55;;;;;;;21.96;54.60;100691.63;4155006;28;20062;-87
2021/06/20 06:13:51;;;;;;;3.03;1.30;;;;;;;23.97;51.81;100725.56;4163353;28;20033;-84
2021/06/20 06:15:52;;;;;;;2.15;1.50;;;;;;;23.90;50.04;100724.34;4157785;28;20605;-90
2021/06/20 06:17:52;;;;;;;1.40;1.30;;;;;;;24.58;47.90;100726.00;4127311;28;20565;-88
2021/06/20 06:19:53;;;;;;;2.75;1.40;;;;;;;23.27;44.23;100729.66;4164329;28;20155;-88
2021/06/20 06:21:54;;;;;;;1.67;0.90;;;;;;;22.27;47.62;100733.78;4159253;28;20507;-87
2021/06/20 06:23:54;;;;;;;2.45;1.10;;;;;;;21.39;49.06;100745.38;4176762;28;20029;-89
2021/06/20 06:25:55;;;;;;;2.25;1.55;;;;;;;21.08;52.64;100759.66;4143400;28;20057;-88
2021/06/20 06:27:55;;;;;;;3.30;1.05;;;;;;;20.51;53.81;100761.34;4163363;28;20066;-89
2021/06/20 06:29:56;;;;;;;2.83;1.20;;;;;;;19.70;53.31;100770.81;4154402;28;20032;-87
2021/06/20 06:31:56;;;;;;;2.83;1.40;;;;;;;19.61;57.56;100772.53;4175330;28;20104;-89
2021/06/20 06:33:58;;;;;;;1.23;0.80;;;;;;;19.40;57.32;100771.78;4151067;28;20166;-89
2021/06/20 06:35:58;;;;;;;1.85;1.15;;;;;;;18.97;56.59;100761.09;4158674;28;20123;-90
2021/06/20 06:37:58;;;;;;;2.15;0.70;;;;;;;18.78;57.93;100757.25;4158024;28;20026;-88
2021/06/20 06:39:59;;;;;;;2.65;1.20;;;;;;;18.83;56.66;100757.25;4128016;28;20034;-88
2021/06/20 06:42:00;;;;;;;3.08;1.35;;;;;;;18.98;58.58;100771.06;4159255;28;20064;-87
2021/06/20 06:44:04;;;;;;;1.25;0.77;;;;;;;18.95;57.33;100745.84;4155207;28;20037;-87
2021/06/20 06:46:04;;;;;;;1.52;0.85;;;;;;;19.08;57.22;100759.13;4175103;28;20029;-88
2021/06/20 06:48:05;;;;;;;3.80;1.10;;;;;;;19.19;56.52;100760.78;4157697;28;20360;-87
2021/06/20 06:50:07;;;;;;;3.70;1.20;;;;;;;18.83;56.12;100763.63;4157864;28;20133;-88
2021/06/20 06:52:07;;;;;;;2.38;1.05;;;;;;;18.58;58.47;100764.50;4174521;28;20029;-88
2021/06/20 06:54:08;;;;;;;2.03;1.13;;;;;;;18.68;59.93;100758.13;4143618;28;20046;-89
2021/06/20 06:56:08;;;;;;;1.92;1.25;;;;;;;18.98;60.12;100778.56;4140234;28;20446;-87
2021/06/20 06:58:09;;;;;;;1.90;1.00;;;;;;;19.09;60.35;100777.44;4155128;28;20744;-86
2021/06/20 07:00:11;;;;;;;2.65;1.30;;;;;;;19.22;60.02;100796.28;4173912;28;20052;-87
2021/06/20 07:02:12;;;;;;;3.13;1.10;;;;;;;19.50;60.63;100796.72;4176383;28;20036;-87
2021/06/20 07:04:12;;;;;;;1.95;0.93;;;;;;;19.78;60.32;100794.38;4158117;28;20474;-87
2021/06/20 07:06:13;;;;;;;4.00;1.30;;;;;;;19.88;59.53;100799.91;4129024;28;20038;-87
2021/06/20 07:08:13;;;;;;;0.93;0.80;;;;;;;20.09;60.95;100819.22;4149226;28;20106;-90
2021/06/20 07:10:14;;;;;;;1.38;1.05;;;;;;;20.42;57.66;100817.59;4137345;28;20076;-89
2021/06/20 07:12:14;;;;;;;1.75;1.05;;;;;;;20.43;57.46;100827.56;4158292;28;20030;-88
2021/06/20 07:14:15;;;;;;;1.42;0.70;;;;;;;20.26;58.82;100825.19;4146693;28;20050;-86
2021/06/20 07:16:15;;;;;;;2.17;0.93;;;;;;;20.41;58.06;100826.22;4182170;28;20033;-87
2021/06/20 07:18:16;;;;;;;1.40;0.80;;;;;;;20.71;59.84;100829.88;4160409;28;20026;-88
2021/06/20 07:20:17;;;;;;;2.90;0.98;;;;;;;21.12;57.15;100840.63;4168695;28;20043;-89
2021/06/20 07:22:17;;;;;;;2.40;0.80;;;;;;;21.37;56.50;100832.00;4143009;28;20030;-90
2021/06/20 07:24:18;;;;;;;1.00;0.90;;;;;;;21.35;55.70;100839.81;4156447;28;20103;-86
2021/06/20 07:26:18;;;;;;;1.65;0.80;;;;;;;21.29;54.59;100841.00;4149606;28;20540;-87
2021/06/20 07:28:19;;;;;;;9.77;1.13;;;;;;;21.11;56.46;100836.16;4174862;28;20057;-86
2021/06/20 07:30:20;;;;;;;1.10;0.68;;;;;;;21.12;56.38;100843.41;4177082;28;20040;-87
2021/06/20 07:32:21;;;;;;;1.23;0.60;;;;;;;20.91;56.08;100840.00;4167983;28;20029;-90
2021/06/20 07:34:22;;;;;;;1.30;1.02;;;;;;;20.64;56.58;100852.47;4154004;28;20411;-89
2021/06/20 07:36:22;;;;;;;2.28;1.05;;;;;;;20.38;57.62;100854.59;4128033;28;20037;-88
2021/06/20 07:38:23;;;;;;;1.77;1.10;;;;;;;20.19;58.00;100854.44;4152104;28;20089;-87
2021/06/20 07:40:24;;;;;;;1.48;1.38;;;;;;;19.87;58.40;100837.13;4175042;28;20082;-90
2021/06/20 07:42:25;;;;;;;2.40;1.55;;;;;;;19.76;58.99;100827.16;4163721;28;20052;-91
2021/06/20 07:44:25;;;;;;;2.25;1.20;;;;;;;19.56;59.21;100812.25;4161232;28;20049;-90
2021/06/20 07:46:25;;;;;;;3.65;1.48;;;;;;;19.25;59.89;100803.22;4129404;28;20089;-86
2021/06/20 07:48:28;;;;;;;2.05;1.20;;;;;;;19.07;60.14;100819.31;4159468;28;20571;-84
2021/06/20 07:50:29;;;;;;;5.63;1.65;;;;;;;19.03;60.69;100818.25;4174072;28;20061;-88
2021/06/20 07:52:29;;;;;;;2.20;1.33;;;;;;;19.06;60.49;100819.59;4130629;28;20045;-84
2021/06/20 07:54:30;;;;;;;3.10;1.10;;;;;;;19.26;60.53;100829.84;4143322;28;20038;-87
2021/06/20 07:56:30;;;;;;;4.13;1.27;;;;;;;19.33;60.07;100824.00;4174961;28;20036;-86
2021/06/20 07:58:31;;;;;;;3.20;1.77;;;;;;;19.63;59.71;100811.94;4144681;28;20029;-90
2021/06/20 08:00:31;;;;;;;5.10;3.00;;;;;;;20.00;58.87;100837.59;4143177;28;20033;-87
2021/06/20 08:02:32;;;;;;;4.82;2.55;;;;;;;20.35;58.15;100836.53;4158239;28;20825;-90
2021/06/20 08:04:32;;;;;;;6.72;4.43;;;;;;;20.52;56.54;100843.66;4161799;28;20738;-89
2021/06/20 08:06:33;;;;;;;8.25;5.38;;;;;;;20.58;57.19;100837.78;4144303;28;20156;-88
2021/06/20 08:08:33;;;;;;;7.90;5.90;;;;;;;20.92;56.35;100836.91;4176231;28;20074;-89
2021/06/20 08:10:34;;;;;;;6.53;4.20;;;;;;;20.93;55.98;100844.16;4154540;28;20017;-88
2021/06/20 08:12:35;;;;;;;6.22;4.40;;;;;;;20.62;55.41;100849.13;4143922;28;20040;-92
2021/06/20 08:14:37;;;;;;;8.52;5.45;;;;;;;20.44;56.72;100848.69;4143975;28;20044;-90
2021/06/20 08:16:37;;;;;;;6.85;4.97;;;;;;;20.37;57.03;100864.88;4156184;28;20476;-92
2021/06/20 08:18:38;;;;;;;7.47;4.88;;;;;;;20.03;56.34;100860.09;4126924;28;20029;-86
2021/06/20 08:20:38;;;;;;;4.63;2.85;;;;;;;19.84;57.63;100850.72;4146306;28;20034;-85
2021/06/20 08:22:40;;;;;;;3.55;2.30;;;;;;;19.75;58.80;100850.47;4143771;28;20057;-92
2021/06/20 08:24:41;;;;;;;1.77;1.40;;;;;;;19.75;59.34;100842.97;4161060;28;20029;-88
2021/06/20 08:26:42;;;;;;;2.70;1.33;;;;;;;19.86;59.42;100854.91;4153709;28;20672;-91
2021/06/20 08:28:43;;;;;;;3.17;1.00;;;;;;;19.83;58.71;100860.16;4158813;28;20033;-89
2021/06/20 08:30:45;;;;;;;2.10;1.10;;;;;;;19.71;58.11;100869.69;4157096;28;20423;-88
2021/06/20 08:32:46;;;;;;;3.33;1.00;;;;;;;19.44;57.19;100872.00;4143394;28;20038;-87
2021/06/20 08:34:46;;;;;;;2.63;1.25;;;;;;;19.43;58.84;100885.03;4176230;28;20129;-88
2021/06/20 08:36:47;;;;;;;1.38;1.00;;;;;;;19.21;59.82;100877.03;4140311;28;20575;-93
2021/06/20 08:38:48;;;;;;;3.15;1.10;;;;;;;18.78;58.79;100868.19;4144305;28;20058;-89
2021/06/20 08:40:48;;;;;;;3.97;1.05;;;;;;;18.91;59.55;100880.66;4151762;28;20029;-87
2021/06/20 08:42:49;;;;;;;5.15;1.75;;;;;;;18.60;60.43;100869.56;4144148;28;20034;-89
2021/06/20 08:44:49;;;;;;;2.38;0.88;;;;;;;18.75;60.60;100875.09;4160734;28;20022;-89
2021/06/20 08:46:50;;;;;;;6.93;1.30;;;;;;;18.72;60.50;100878.44;4179111;28;20064;-91
2021/06/20 08:48:51;;;;;;;5.20;1.15;;;;;;;18.96;60.70;100898.13;4158542;28;20030;-92
2021/06/20 08:50:52;;;;;;;1.75;0.90;;;;;;;18.88;61.03;100885.66;4131689;28;20173;-90
2021/06/20 08:52:54;;;;;;;3.60;1.10;;;;;;;19.12;60.33;100893.41;4173071;28;20028;-90
2021/06/20 08:55:01;;;;;;;3.38;1.17;;;;;;;19.21;61.26;100896.47;4158823;28;20029;-91
2021/06/20 08:57:03;;;;;;;3.08;1.17;;;;;;;19.38;60.26;100899.75;4138428;28;20038;-88
2021/06/20 08:59:06;;;;;;;2.42;0.98;;;;;;;19.36;58.37;100895.59;4155040;28;20038;-88
2021/06/20 09:01:09;;;;;;;4.60;1.00;;;;;;;19.68;57.71;100891.59;4151148;28;20034;-91
2021/06/20 09:03:10;;;;;;;2.83;1.25;;;;;;;20.08;58.11;100900.91;4152613;28;20053;-88
2021/06/20 09:05:13;;;;;;;3.35;1.88;;;;;;;20.35;56.17;100905.22;4152596;28;20038;-91
2021/06/20 09:07:14;;;;;;;3.17;2.08;;;;;;;20.71;56.47;100891.06;4151895;28;20025;-89
2021/06/20 09:09:15;;;;;;;4.60;1.35;;;;;;;20.81;55.42;100885.44;4156837;28;20041;-87
2021/06/20 09:11:24;;;;;;;4.13;1.77;;;;;;;21.02;55.07;100892.47;4153086;28;20061;-86
2021/06/20 09:13:34;;;;;;;5.68;1.85;;;;;;;21.06;55.09;100914.16;4151915;28;20041;-92
2021/06/20 09:15:35;;;;;;;3.90;1.15;;;;;;;20.82;52.21;100901.00;4153567;28;20060;-89
2021/06/20 09:17:38;;;;;;;3.30;1.27;;;;;;;20.64;54.74;100903.38;4150386;28;20026;-91
2021/06/20 09:19:39;;;;;;;3.95;1.08;;;;;;;20.83;55.62;100911.00;4139324;28;20068;-87
2021/06/20 09:21:50;;;;;;;3.92;1.55;;;;;;;20.71;55.74;100921.66;4165423;28;20033;-87
2021/06/20 09:23:55;;;;;;;3.67;1.42;;;;;;;20.84;55.46;100904.31;4150497;28;20037;-85